sensor_id;sensor_type;location;lat;lon;timestamp;P1;durP1;ratioP1;P2;durP2;ratioP2
29466;SDS011;60968;37.490;-122.288;2022-10-16T00:00:34;13.97;;;6.00;;
29466;SDS011;60968;37.490;-122.288;2022-10-16T00:03:35;10.93;;;5.33;;
29466;SDS011;60968;37.490;-122.288;2022-10-16T00:06:37;10.03;;;5.53;;
29466;SDS011;60968;37.490;-122.288;2022-10-16T00:09:38;10.70;;;5.77;;
29466;SDS011;60968;37.490;-122.288;2022-10-16T00:12:39;9.90;;;5.90;;
29466;SDS011;60968;37.490;-122.288;2022-10-16T00:15:40;13.30;;;5.70;;
29466;SDS011;60968;37.490;-122.288;2022-10-16T00:18:40;12.47;;;5.77;;
29466;SDS011;60968;37.490;-122.288;2022-10-16T00:21:42;11.20;;;5.90;;
29466;SDS011;60968;37.490;-122.288;2022-10-16T00:24:44;13.47;;;5.97;;
29466;SDS011;60968;37.490;-122.288;2022-10-16T00:27:44;8.07;;;4.87;;
29466;SDS011;60968;37.490;-122.288;2022-10-16T00:30:45;15.40;;;6.00;;
29466;SDS011;60968;37.490;-122.288;2022-10-16T00:33:46;10.40;;;5.63;;
29466;SDS011;60968;37.490;-122.288;2022-10-16T00:36:47;14.77;;;5.77;;
29466;SDS011;60968;37.490;-122.288;2022-10-16T00:39:48;10.03;;;5.50;;
29466;SDS011;60968;37.490;-122.288;2022-10-16T00:42:49;13.27;;;6.30;;
29466;SDS011;60968;37.490;-122.288;2022-10-16T00:45:49;16.47;;;5.63;;
29466;SDS011;60968;37.490;-122.288;2022-10-16T00:49:12;12.77;;;5.90;;
29466;SDS011;60968;37.490;-122.288;2022-10-16T00:52:19;11.00;;;5.23;;
29466;SDS011;60968;37.490;-122.288;2022-10-16T00:55:20;11.93;;;6.27;;
29466;SDS011;60968;37.490;-122.288;2022-10-16T00:58:21;11.80;;;5.60;;
29466;SDS011;60968;37.490;-122.288;2022-10-16T01:01:22;8.30;;;5.03;;
29466;SDS011;60968;37.490;-122.288;2022-10-16T01:04:23;9.80;;;4.93;;
29466;SDS011;60968;37.490;-122.288;2022-10-16T01:14:01;13.83;;;5.40;;
29466;SDS011;60968;37.490;-122.288;2022-10-16T01:17:12;10.27;;;5.13;;
29466;SDS011;60968;37.490;-122.288;2022-10-16T01:33:21;13.73;;;5.93;;
29466;SDS011;60968;37.490;-122.288;2022-10-16T01:36:31;13.80;;;6.50;;
29466;SDS011;60968;37.490;-122.288;2022-10-16T01:39:40;44.63;;;13.93;;
29466;SDS011;60968;37.490;-122.288;2022-10-16T01:42:49;73.83;;;27.20;;
29466;SDS011;60968;37.490;-122.288;2022-10-16T01:45:56;90.10;;;27.67;;
29466;SDS011;60968;37.490;-122.288;2022-10-16T01:49:00;121.33;;;41.00;;
29466;SDS011;60968;37.490;-122.288;2022-10-16T01:52:05;45.50;;;19.23;;
29466;SDS011;60968;37.490;-122.288;2022-10-16T01:55:11;24.47;;;9.43;;
29466;SDS011;60968;37.490;-122.288;2022-10-16T01:58:15;20.10;;;8.43;;
29466;SDS011;60968;37.490;-122.288;2022-10-16T02:01:16;15.73;;;7.00;;
29466;SDS011;60968;37.490;-122.288;2022-10-16T02:04:37;15.87;;;7.80;;
29466;SDS011;60968;37.490;-122.288;2022-10-16T02:07:42;18.93;;;7.77;;
29466;SDS011;60968;37.490;-122.288;2022-10-16T02:10:43;20.20;;;8.20;;
29466;SDS011;60968;37.490;-122.288;2022-10-16T02:13:51;20.47;;;8.03;;
29466;SDS011;60968;37.490;-122.288;2022-10-16T02:16:55;17.63;;;8.33;;
29466;SDS011;60968;37.490;-122.288;2022-10-16T02:19:56;19.20;;;6.90;;
29466;SDS011;60968;37.490;-122.288;2022-10-16T02:22:59;17.53;;;8.23;;
29466;SDS011;60968;37.490;-122.288;2022-10-16T02:26:04;21.00;;;7.93;;
29466;SDS011;60968;37.490;-122.288;2022-10-16T02:29:10;19.43;;;7.63;;
29466;SDS011;60968;37.490;-122.288;2022-10-16T02:32:16;16.20;;;7.67;;
29466;SDS011;60968;37.490;-122.288;2022-10-16T02:35:21;15.20;;;7.37;;
29466;SDS011;60968;37.490;-122.288;2022-10-16T02:38:24;17.20;;;7.63;;
29466;SDS011;60968;37.490;-122.288;2022-10-16T02:41:26;19.07;;;8.43;;
29466;SDS011;60968;37.490;-122.288;2022-10-16T02:44:27;20.33;;;7.07;;
29466;SDS011;60968;37.490;-122.288;2022-10-16T02:47:28;18.47;;;8.27;;
29466;SDS011;60968;37.490;-122.288;2022-10-16T02:50:29;15.10;;;6.90;;
29466;SDS011;60968;37.490;-122.288;2022-10-16T02:53:29;18.40;;;7.17;;
29466;SDS011;60968;37.490;-122.288;2022-10-16T02:56:31;13.67;;;6.70;;
29466;SDS011;60968;37.490;-122.288;2022-10-16T02:59:31;12.50;;;6.20;;
29466;SDS011;60968;37.490;-122.288;2022-10-16T03:02:34;12.43;;;6.93;;
29466;SDS011;60968;37.490;-122.288;2022-10-16T03:05:35;13.70;;;6.20;;
29466;SDS011;60968;37.490;-122.288;2022-10-16T03:08:35;14.70;;;6.40;;
29466;SDS011;60968;37.490;-122.288;2022-10-16T03:11:36;14.30;;;7.50;;
29466;SDS011;60968;37.490;-122.288;2022-10-16T03:14:37;12.73;;;6.23;;
29466;SDS011;60968;37.490;-122.288;2022-10-16T03:17:38;17.27;;;6.23;;
29466;SDS011;60968;37.490;-122.288;2022-10-16T03:20:38;13.47;;;6.27;;
29466;SDS011;60968;37.490;-122.288;2022-10-16T03:23:39;16.20;;;6.30;;
29466;SDS011;60968;37.490;-122.288;2022-10-16T03:26:40;13.80;;;5.83;;
29466;SDS011;60968;37.490;-122.288;2022-10-16T03:29:41;13.37;;;6.17;;
29466;SDS011;60968;37.490;-122.288;2022-10-16T03:32:43;16.63;;;6.13;;
29466;SDS011;60968;37.490;-122.288;2022-10-16T03:35:50;15.20;;;6.17;;
29466;SDS011;60968;37.490;-122.288;2022-10-16T03:38:52;10.50;;;5.93;;
29466;SDS011;60968;37.490;-122.288;2022-10-16T03:41:52;12.50;;;6.43;;
29466;SDS011;60968;37.490;-122.288;2022-10-16T03:44:53;13.63;;;6.53;;
29466;SDS011;60968;37.490;-122.288;2022-10-16T03:47:54;14.07;;;6.50;;
29466;SDS011;60968;37.490;-122.288;2022-10-16T03:50:55;12.23;;;5.60;;
29466;SDS011;60968;37.490;-122.288;2022-10-16T03:53:56;9.43;;;5.83;;
29466;SDS011;60968;37.490;-122.288;2022-10-16T03:56:57;13.50;;;5.60;;
29466;SDS011;60968;37.490;-122.288;2022-10-16T03:59:57;9.73;;;5.70;;
29466;SDS011;60968;37.490;-122.288;2022-10-16T04:02:58;11.47;;;6.00;;
29466;SDS011;60968;37.490;-122.288;2022-10-16T04:05:59;12.13;;;5.90;;
29466;SDS011;60968;37.490;-122.288;2022-10-16T04:09:00;12.27;;;6.07;;
29466;SDS011;60968;37.490;-122.288;2022-10-16T04:12:01;16.27;;;6.50;;
29466;SDS011;60968;37.490;-122.288;2022-10-16T04:15:02;21.30;;;6.50;;
29466;SDS011;60968;37.490;-122.288;2022-10-16T04:18:04;12.07;;;6.27;;
29466;SDS011;60968;37.490;-122.288;2022-10-16T04:21:05;13.23;;;6.23;;
29466;SDS011;60968;37.490;-122.288;2022-10-16T04:24:06;14.43;;;6.33;;
29466;SDS011;60968;37.490;-122.288;2022-10-16T04:27:07;14.50;;;7.27;;
29466;SDS011;60968;37.490;-122.288;2022-10-16T04:30:08;11.33;;;5.87;;
29466;SDS011;60968;37.490;-122.288;2022-10-16T04:33:10;17.20;;;6.80;;
29466;SDS011;60968;37.490;-122.288;2022-10-16T04:36:11;18.73;;;7.07;;
29466;SDS011;60968;37.490;-122.288;2022-10-16T04:39:12;17.77;;;7.50;;
29466;SDS011;60968;37.490;-122.288;2022-10-16T04:42:13;19.30;;;7.07;;
29466;SDS011;60968;37.490;-122.288;2022-10-16T04:45:14;14.77;;;7.30;;
29466;SDS011;60968;37.490;-122.288;2022-10-16T04:48:15;16.30;;;7.83;;
29466;SDS011;60968;37.490;-122.288;2022-10-16T04:51:16;14.87;;;6.87;;
29466;SDS011;60968;37.490;-122.288;2022-10-16T04:54:17;20.23;;;6.93;;
29466;SDS011;60968;37.490;-122.288;2022-10-16T04:57:18;17.33;;;7.40;;
29466;SDS011;60968;37.490;-122.288;2022-10-16T05:00:19;20.70;;;7.03;;
29466;SDS011;60968;37.490;-122.288;2022-10-16T05:03:19;17.57;;;7.43;;
29466;SDS011;60968;37.490;-122.288;2022-10-16T05:06:20;15.90;;;7.83;;
29466;SDS011;60968;37.490;-122.288;2022-10-16T05:09:21;17.17;;;7.27;;
29466;SDS011;60968;37.490;-122.288;2022-10-16T05:12:22;16.60;;;6.87;;
29466;SDS011;60968;37.490;-122.288;2022-10-16T05:15:23;15.17;;;6.90;;
29466;SDS011;60968;37.490;-122.288;2022-10-16T05:18:24;16.70;;;7.93;;
29466;SDS011;60968;37.490;-122.288;2022-10-16T05:21:24;23.47;;;8.30;;
29466;SDS011;60968;37.490;-122.288;2022-10-16T05:24:25;17.90;;;8.13;;
29466;SDS011;60968;37.490;-122.288;2022-10-16T05:27:26;18.07;;;6.60;;
29466;SDS011;60968;37.490;-122.288;2022-10-16T05:30:27;18.73;;;7.20;;
29466;SDS011;60968;37.490;-122.288;2022-10-16T05:33:28;11.90;;;7.23;;
29466;SDS011;60968;37.490;-122.288;2022-10-16T05:36:29;17.43;;;7.07;;
29466;SDS011;60968;37.490;-122.288;2022-10-16T05:39:30;15.80;;;7.63;;
29466;SDS011;60968;37.490;-122.288;2022-10-16T05:42:30;15.00;;;7.33;;
29466;SDS011;60968;37.490;-122.288;2022-10-16T05:45:31;15.80;;;6.93;;
29466;SDS011;60968;37.490;-122.288;2022-10-16T05:48:32;15.63;;;7.23;;
29466;SDS011;60968;37.490;-122.288;2022-10-16T05:51:33;19.47;;;7.57;;
29466;SDS011;60968;37.490;-122.288;2022-10-16T05:54:34;20.50;;;7.83;;
29466;SDS011;60968;37.490;-122.288;2022-10-16T05:57:35;18.60;;;7.70;;
29466;SDS011;60968;37.490;-122.288;2022-10-16T06:00:36;16.50;;;7.13;;
29466;SDS011;60968;37.490;-122.288;2022-10-16T06:03:37;16.37;;;8.00;;
29466;SDS011;60968;37.490;-122.288;2022-10-16T06:06:38;18.83;;;7.87;;
29466;SDS011;60968;37.490;-122.288;2022-10-16T06:09:39;25.27;;;8.93;;
29466;SDS011;60968;37.490;-122.288;2022-10-16T06:12:40;22.13;;;8.10;;
29466;SDS011;60968;37.490;-122.288;2022-10-16T06:15:41;19.67;;;7.73;;
29466;SDS011;60968;37.490;-122.288;2022-10-16T06:18:42;16.60;;;7.97;;
29466;SDS011;60968;37.490;-122.288;2022-10-16T06:21:43;22.43;;;8.13;;
29466;SDS011;60968;37.490;-122.288;2022-10-16T06:24:44;29.80;;;9.27;;
29466;SDS011;60968;37.490;-122.288;2022-10-16T06:27:47;19.60;;;8.47;;
29466;SDS011;60968;37.490;-122.288;2022-10-16T06:30:47;16.37;;;8.17;;
29466;SDS011;60968;37.490;-122.288;2022-10-16T06:33:51;14.63;;;7.47;;
29466;SDS011;60968;37.490;-122.288;2022-10-16T06:36:52;16.70;;;7.70;;
29466;SDS011;60968;37.490;-122.288;2022-10-16T06:39:53;19.23;;;8.47;;
29466;SDS011;60968;37.490;-122.288;2022-10-16T06:42:55;21.67;;;8.23;;
29466;SDS011;60968;37.490;-122.288;2022-10-16T06:45:56;25.10;;;7.83;;
29466;SDS011;60968;37.490;-122.288;2022-10-16T06:48:57;19.47;;;7.47;;
29466;SDS011;60968;37.490;-122.288;2022-10-16T06:51:59;25.40;;;7.57;;
29466;SDS011;60968;37.490;-122.288;2022-10-16T06:54:59;16.13;;;7.77;;
29466;SDS011;60968;37.490;-122.288;2022-10-16T06:58:00;18.70;;;7.73;;
29466;SDS011;60968;37.490;-122.288;2022-10-16T07:01:01;20.87;;;8.20;;
29466;SDS011;60968;37.490;-122.288;2022-10-16T07:04:03;21.03;;;7.77;;
29466;SDS011;60968;37.490;-122.288;2022-10-16T07:07:04;21.17;;;8.50;;
29466;SDS011;60968;37.490;-122.288;2022-10-16T07:10:05;17.00;;;7.60;;
29466;SDS011;60968;37.490;-122.288;2022-10-16T07:13:06;17.93;;;8.17;;
29466;SDS011;60968;37.490;-122.288;2022-10-16T07:16:08;17.40;;;7.57;;
29466;SDS011;60968;37.490;-122.288;2022-10-16T07:19:09;18.30;;;8.00;;
29466;SDS011;60968;37.490;-122.288;2022-10-16T07:22:11;20.53;;;8.43;;
29466;SDS011;60968;37.490;-122.288;2022-10-16T07:25:12;20.10;;;7.87;;
29466;SDS011;60968;37.490;-122.288;2022-10-16T07:28:13;21.97;;;8.40;;
29466;SDS011;60968;37.490;-122.288;2022-10-16T07:31:14;17.13;;;7.30;;
29466;SDS011;60968;37.490;-122.288;2022-10-16T07:34:17;13.07;;;7.23;;
29466;SDS011;60968;37.490;-122.288;2022-10-16T07:37:19;21.40;;;7.40;;
29466;SDS011;60968;37.490;-122.288;2022-10-16T07:40:19;17.57;;;7.50;;
29466;SDS011;60968;37.490;-122.288;2022-10-16T07:43:20;24.50;;;8.03;;
29466;SDS011;60968;37.490;-122.288;2022-10-16T07:46:21;21.53;;;6.97;;
29466;SDS011;60968;37.490;-122.288;2022-10-16T07:49:23;14.70;;;6.87;;
29466;SDS011;60968;37.490;-122.288;2022-10-16T07:52:23;19.83;;;7.70;;
29466;SDS011;60968;37.490;-122.288;2022-10-16T07:55:24;20.43;;;7.80;;
29466;SDS011;60968;37.490;-122.288;2022-10-16T07:58:26;18.63;;;8.30;;
29466;SDS011;60968;37.490;-122.288;2022-10-16T08:01:27;19.97;;;7.87;;
29466;SDS011;60968;37.490;-122.288;2022-10-16T08:04:28;16.30;;;7.50;;
29466;SDS011;60968;37.490;-122.288;2022-10-16T08:07:29;16.53;;;8.03;;
29466;SDS011;60968;37.490;-122.288;2022-10-16T08:10:30;22.53;;;7.13;;
29466;SDS011;60968;37.490;-122.288;2022-10-16T08:13:31;22.40;;;7.37;;
29466;SDS011;60968;37.490;-122.288;2022-10-16T08:16:32;15.83;;;6.43;;
29466;SDS011;60968;37.490;-122.288;2022-10-16T08:19:33;22.97;;;8.33;;
29466;SDS011;60968;37.490;-122.288;2022-10-16T08:22:34;17.33;;;7.13;;
29466;SDS011;60968;37.490;-122.288;2022-10-16T08:25:35;22.07;;;7.93;;
29466;SDS011;60968;37.490;-122.288;2022-10-16T08:28:36;17.40;;;7.63;;
29466;SDS011;60968;37.490;-122.288;2022-10-16T08:31:37;15.83;;;7.27;;
29466;SDS011;60968;37.490;-122.288;2022-10-16T08:34:38;18.00;;;7.27;;
29466;SDS011;60968;37.490;-122.288;2022-10-16T08:37:39;19.03;;;7.60;;
29466;SDS011;60968;37.490;-122.288;2022-10-16T08:40:41;22.63;;;6.90;;
29466;SDS011;60968;37.490;-122.288;2022-10-16T08:47:02;17.43;;;7.10;;
29466;SDS011;60968;37.490;-122.288;2022-10-16T08:50:29;15.20;;;6.53;;
29466;SDS011;60968;37.490;-122.288;2022-10-16T08:53:38;13.53;;;7.13;;
29466;SDS011;60968;37.490;-122.288;2022-10-16T08:56:49;17.70;;;6.90;;
29466;SDS011;60968;37.490;-122.288;2022-10-16T08:59:50;18.17;;;7.13;;
29466;SDS011;60968;37.490;-122.288;2022-10-16T09:12:36;19.00;;;7.97;;
29466;SDS011;60968;37.490;-122.288;2022-10-16T09:15:53;16.00;;;6.80;;
29466;SDS011;60968;37.490;-122.288;2022-10-16T09:22:14;14.70;;;6.73;;
29466;SDS011;60968;37.490;-122.288;2022-10-16T09:25:17;17.13;;;7.57;;
29466;SDS011;60968;37.490;-122.288;2022-10-16T09:28:21;21.50;;;7.93;;
29466;SDS011;60968;37.490;-122.288;2022-10-16T09:31:22;19.53;;;7.50;;
29466;SDS011;60968;37.490;-122.288;2022-10-16T09:34:36;21.73;;;7.80;;
29466;SDS011;60968;37.490;-122.288;2022-10-16T09:37:44;15.13;;;7.93;;
29466;SDS011;60968;37.490;-122.288;2022-10-16T09:40:47;15.93;;;7.70;;
29466;SDS011;60968;37.490;-122.288;2022-10-16T09:43:49;20.83;;;8.43;;
29466;SDS011;60968;37.490;-122.288;2022-10-16T09:50:27;22.00;;;8.70;;
29466;SDS011;60968;37.490;-122.288;2022-10-16T09:53:38;17.50;;;8.83;;
29466;SDS011;60968;37.490;-122.288;2022-10-16T09:56:48;24.73;;;9.70;;
29466;SDS011;60968;37.490;-122.288;2022-10-16T09:59:51;27.40;;;10.10;;
29466;SDS011;60968;37.490;-122.288;2022-10-16T10:02:53;26.67;;;9.30;;
29466;SDS011;60968;37.490;-122.288;2022-10-16T10:05:55;21.53;;;9.37;;
29466;SDS011;60968;37.490;-122.288;2022-10-16T10:15:24;23.63;;;9.10;;
29466;SDS011;60968;37.490;-122.288;2022-10-16T10:18:28;20.97;;;9.20;;
29466;SDS011;60968;37.490;-122.288;2022-10-16T10:21:28;21.10;;;9.30;;
29466;SDS011;60968;37.490;-122.288;2022-10-16T10:24:33;23.20;;;11.43;;
29466;SDS011;60968;37.490;-122.288;2022-10-16T10:57:09;31.17;;;12.53;;
29466;SDS011;60968;37.490;-122.288;2022-10-16T11:00:14;41.63;;;15.30;;
29466;SDS011;60968;37.490;-122.288;2022-10-16T11:10:45;31.77;;;15.57;;
29466;SDS011;60968;37.490;-122.288;2022-10-16T11:17:06;36.37;;;17.43;;
29466;SDS011;60968;37.490;-122.288;2022-10-16T11:20:28;37.27;;;16.17;;
29466;SDS011;60968;37.490;-122.288;2022-10-16T11:23:36;37.10;;;16.30;;
29466;SDS011;60968;37.490;-122.288;2022-10-16T11:26:39;41.83;;;16.77;;
29466;SDS011;60968;37.490;-122.288;2022-10-16T11:29:48;35.07;;;16.07;;
29466;SDS011;60968;37.490;-122.288;2022-10-16T11:39:29;36.33;;;15.47;;
29466;SDS011;60968;37.490;-122.288;2022-10-16T11:42:32;33.90;;;14.90;;
29466;SDS011;60968;37.490;-122.288;2022-10-16T11:45:44;37.30;;;15.57;;
29466;SDS011;60968;37.490;-122.288;2022-10-16T11:48:51;32.90;;;16.27;;
29466;SDS011;60968;37.490;-122.288;2022-10-16T12:05:20;41.10;;;17.90;;
29466;SDS011;60968;37.490;-122.288;2022-10-16T12:08:33;41.00;;;16.87;;
29466;SDS011;60968;37.490;-122.288;2022-10-16T12:11:39;36.93;;;14.63;;
29466;SDS011;60968;37.490;-122.288;2022-10-16T12:14:40;30.73;;;15.23;;
29466;SDS011;60968;37.490;-122.288;2022-10-16T12:17:41;32.50;;;15.53;;
29466;SDS011;60968;37.490;-122.288;2022-10-16T12:20:41;38.87;;;15.90;;
29466;SDS011;60968;37.490;-122.288;2022-10-16T12:23:50;32.63;;;14.83;;
29466;SDS011;60968;37.490;-122.288;2022-10-16T12:26:53;38.13;;;16.13;;
29466;SDS011;60968;37.490;-122.288;2022-10-16T12:29:56;39.03;;;15.07;;
29466;SDS011;60968;37.490;-122.288;2022-10-16T12:33:03;31.70;;;14.23;;
29466;SDS011;60968;37.490;-122.288;2022-10-16T12:36:26;32.83;;;13.70;;
29466;SDS011;60968;37.490;-122.288;2022-10-16T12:39:30;35.47;;;15.03;;
29466;SDS011;60968;37.490;-122.288;2022-10-16T12:42:32;32.00;;;14.77;;
29466;SDS011;60968;37.490;-122.288;2022-10-16T12:45:34;34.73;;;13.43;;
29466;SDS011;60968;37.490;-122.288;2022-10-16T12:48:37;33.90;;;14.30;;
29466;SDS011;60968;37.490;-122.288;2022-10-16T12:51:39;32.37;;;13.83;;
29466;SDS011;60968;37.490;-122.288;2022-10-16T12:54:40;31.80;;;13.73;;
29466;SDS011;60968;37.490;-122.288;2022-10-16T13:04:35;26.77;;;13.27;;
29466;SDS011;60968;37.490;-122.288;2022-10-16T13:18:25;29.87;;;12.43;;
29466;SDS011;60968;37.490;-122.288;2022-10-16T13:24:48;27.73;;;13.53;;
29466;SDS011;60968;37.490;-122.288;2022-10-16T13:31:01;32.67;;;13.27;;
29466;SDS011;60968;37.490;-122.288;2022-10-16T13:34:02;24.73;;;12.20;;
29466;SDS011;60968;37.490;-122.288;2022-10-16T13:37:15;23.07;;;11.03;;
29466;SDS011;60968;37.490;-122.288;2022-10-16T13:40:22;22.17;;;12.10;;
29466;SDS011;60968;37.490;-122.288;2022-10-16T13:46:37;25.07;;;10.63;;
29466;SDS011;60968;37.490;-122.288;2022-10-16T13:49:38;28.47;;;11.47;;
29466;SDS011;60968;37.490;-122.288;2022-10-16T13:52:40;24.03;;;12.17;;
29466;SDS011;60968;37.490;-122.288;2022-10-16T13:55:41;25.23;;;11.53;;
29466;SDS011;60968;37.490;-122.288;2022-10-16T13:58:42;33.33;;;11.63;;
29466;SDS011;60968;37.490;-122.288;2022-10-16T14:01:43;27.13;;;11.40;;
29466;SDS011;60968;37.490;-122.288;2022-10-16T14:04:44;30.40;;;12.10;;
29466;SDS011;60968;37.490;-122.288;2022-10-16T14:07:48;29.90;;;11.43;;
29466;SDS011;60968;37.490;-122.288;2022-10-16T14:10:53;22.67;;;10.77;;
29466;SDS011;60968;37.490;-122.288;2022-10-16T14:13:59;28.53;;;11.27;;
29466;SDS011;60968;37.490;-122.288;2022-10-16T14:17:02;24.00;;;9.87;;
29466;SDS011;60968;37.490;-122.288;2022-10-16T14:20:04;20.50;;;9.43;;
29466;SDS011;60968;37.490;-122.288;2022-10-16T14:26:30;25.40;;;9.07;;
29466;SDS011;60968;37.490;-122.288;2022-10-16T14:29:42;25.03;;;9.47;;
29466;SDS011;60968;37.490;-122.288;2022-10-16T14:32:58;23.43;;;8.93;;
29466;SDS011;60968;37.490;-122.288;2022-10-16T14:39:19;23.67;;;8.87;;
29466;SDS011;60968;37.490;-122.288;2022-10-16T14:42:23;19.17;;;8.37;;
29466;SDS011;60968;37.490;-122.288;2022-10-16T14:45:29;17.90;;;8.17;;
29466;SDS011;60968;37.490;-122.288;2022-10-16T14:48:32;19.13;;;8.27;;
29466;SDS011;60968;37.490;-122.288;2022-10-16T14:51:37;26.10;;;8.23;;
29466;SDS011;60968;37.490;-122.288;2022-10-16T14:54:38;25.57;;;9.63;;
29466;SDS011;60968;37.490;-122.288;2022-10-16T14:57:39;26.80;;;10.23;;
29466;SDS011;60968;37.490;-122.288;2022-10-16T15:00:41;23.30;;;9.67;;
29466;SDS011;60968;37.490;-122.288;2022-10-16T15:03:41;23.10;;;9.17;;
29466;SDS011;60968;37.490;-122.288;2022-10-16T15:06:43;25.90;;;9.07;;
29466;SDS011;60968;37.490;-122.288;2022-10-16T15:09:43;23.40;;;9.40;;
29466;SDS011;60968;37.490;-122.288;2022-10-16T15:12:44;28.77;;;10.27;;
29466;SDS011;60968;37.490;-122.288;2022-10-16T15:15:46;21.77;;;9.57;;
29466;SDS011;60968;37.490;-122.288;2022-10-16T15:18:47;22.73;;;8.70;;
29466;SDS011;60968;37.490;-122.288;2022-10-16T15:21:50;23.10;;;9.07;;
29466;SDS011;60968;37.490;-122.288;2022-10-16T15:24:50;19.10;;;8.73;;
29466;SDS011;60968;37.490;-122.288;2022-10-16T15:27:51;20.70;;;8.30;;
29466;SDS011;60968;37.490;-122.288;2022-10-16T15:30:53;21.67;;;8.67;;
29466;SDS011;60968;37.490;-122.288;2022-10-16T15:33:54;22.57;;;9.23;;
29466;SDS011;60968;37.490;-122.288;2022-10-16T15:36:55;20.33;;;8.50;;
29466;SDS011;60968;37.490;-122.288;2022-10-16T15:39:56;20.37;;;8.20;;
29466;SDS011;60968;37.490;-122.288;2022-10-16T15:42:57;25.93;;;8.60;;
29466;SDS011;60968;37.490;-122.288;2022-10-16T15:46:02;23.33;;;8.63;;
29466;SDS011;60968;37.490;-122.288;2022-10-16T15:49:05;21.50;;;7.93;;
29466;SDS011;60968;37.490;-122.288;2022-10-16T15:52:06;23.30;;;9.07;;
29466;SDS011;60968;37.490;-122.288;2022-10-16T15:55:11;18.27;;;8.97;;
29466;SDS011;60968;37.490;-122.288;2022-10-16T15:58:12;23.33;;;8.67;;
29466;SDS011;60968;37.490;-122.288;2022-10-16T16:01:13;19.47;;;8.53;;
29466;SDS011;60968;37.490;-122.288;2022-10-16T16:04:14;25.10;;;8.23;;
29466;SDS011;60968;37.490;-122.288;2022-10-16T16:07:15;19.87;;;8.03;;
29466;SDS011;60968;37.490;-122.288;2022-10-16T16:10:17;19.07;;;7.97;;
29466;SDS011;60968;37.490;-122.288;2022-10-16T16:13:18;18.43;;;8.00;;
29466;SDS011;60968;37.490;-122.288;2022-10-16T16:16:19;21.73;;;8.07;;
29466;SDS011;60968;37.490;-122.288;2022-10-16T16:19:20;19.10;;;7.90;;
29466;SDS011;60968;37.490;-122.288;2022-10-16T16:22:21;17.23;;;7.43;;
29466;SDS011;60968;37.490;-122.288;2022-10-16T16:25:22;18.67;;;7.87;;
29466;SDS011;60968;37.490;-122.288;2022-10-16T16:28:23;18.70;;;7.93;;
29466;SDS011;60968;37.490;-122.288;2022-10-16T16:31:25;25.93;;;7.73;;
29466;SDS011;60968;37.490;-122.288;2022-10-16T16:34:28;20.03;;;7.47;;
29466;SDS011;60968;37.490;-122.288;2022-10-16T16:37:30;22.30;;;7.47;;
29466;SDS011;60968;37.490;-122.288;2022-10-16T16:40:31;16.57;;;7.83;;
29466;SDS011;60968;37.490;-122.288;2022-10-16T16:43:32;18.40;;;8.47;;
29466;SDS011;60968;37.490;-122.288;2022-10-16T16:46:33;16.63;;;6.73;;
29466;SDS011;60968;37.490;-122.288;2022-10-16T16:49:34;16.17;;;7.33;;
29466;SDS011;60968;37.490;-122.288;2022-10-16T16:52:35;27.57;;;7.90;;
29466;SDS011;60968;37.490;-122.288;2022-10-16T16:55:36;25.33;;;7.83;;
29466;SDS011;60968;37.490;-122.288;2022-10-16T16:58:37;18.87;;;7.07;;
29466;SDS011;60968;37.490;-122.288;2022-10-16T17:01:38;18.37;;;7.43;;
29466;SDS011;60968;37.490;-122.288;2022-10-16T17:04:39;19.53;;;7.77;;
29466;SDS011;60968;37.490;-122.288;2022-10-16T17:07:40;22.00;;;7.47;;
29466;SDS011;60968;37.490;-122.288;2022-10-16T17:10:43;21.47;;;6.77;;
29466;SDS011;60968;37.490;-122.288;2022-10-16T17:13:44;18.37;;;6.60;;
29466;SDS011;60968;37.490;-122.288;2022-10-16T17:16:45;21.77;;;6.83;;
29466;SDS011;60968;37.490;-122.288;2022-10-16T17:19:46;15.77;;;6.87;;
29466;SDS011;60968;37.490;-122.288;2022-10-16T17:22:49;17.33;;;6.37;;
29466;SDS011;60968;37.490;-122.288;2022-10-16T17:25:49;14.47;;;6.17;;
29466;SDS011;60968;37.490;-122.288;2022-10-16T17:28:54;16.17;;;5.80;;
29466;SDS011;60968;37.490;-122.288;2022-10-16T17:31:57;23.80;;;7.13;;
29466;SDS011;60968;37.490;-122.288;2022-10-16T17:34:57;20.37;;;6.63;;
29466;SDS011;60968;37.490;-122.288;2022-10-16T17:37:58;16.90;;;5.90;;
29466;SDS011;60968;37.490;-122.288;2022-10-16T17:41:08;16.13;;;6.53;;
29466;SDS011;60968;37.490;-122.288;2022-10-16T17:44:11;19.90;;;5.47;;
29466;SDS011;60968;37.490;-122.288;2022-10-16T17:47:12;15.70;;;6.47;;
29466;SDS011;60968;37.490;-122.288;2022-10-16T17:50:13;16.93;;;6.17;;
29466;SDS011;60968;37.490;-122.288;2022-10-16T17:53:15;18.43;;;5.97;;
29466;SDS011;60968;37.490;-122.288;2022-10-16T17:56:16;20.83;;;5.83;;
29466;SDS011;60968;37.490;-122.288;2022-10-16T17:59:19;16.90;;;5.80;;
29466;SDS011;60968;37.490;-122.288;2022-10-16T18:02:20;13.37;;;6.23;;
29466;SDS011;60968;37.490;-122.288;2022-10-16T18:05:21;24.00;;;6.77;;
29466;SDS011;60968;37.490;-122.288;2022-10-16T18:08:22;16.57;;;6.03;;
29466;SDS011;60968;37.490;-122.288;2022-10-16T18:11:23;22.70;;;6.47;;
29466;SDS011;60968;37.490;-122.288;2022-10-16T18:14:26;18.83;;;6.07;;
29466;SDS011;60968;37.490;-122.288;2022-10-16T18:17:28;13.27;;;5.33;;
29466;SDS011;60968;37.490;-122.288;2022-10-16T18:20:29;16.90;;;5.77;;
29466;SDS011;60968;37.490;-122.288;2022-10-16T18:23:31;20.97;;;6.53;;
29466;SDS011;60968;37.490;-122.288;2022-10-16T18:26:34;20.80;;;6.67;;
29466;SDS011;60968;37.490;-122.288;2022-10-16T18:29:34;14.60;;;5.40;;
29466;SDS011;60968;37.490;-122.288;2022-10-16T18:32:36;19.57;;;5.80;;
29466;SDS011;60968;37.490;-122.288;2022-10-16T18:35:37;15.03;;;5.23;;
29466;SDS011;60968;37.490;-122.288;2022-10-16T18:38:39;14.40;;;5.67;;
29466;SDS011;60968;37.490;-122.288;2022-10-16T18:41:40;19.47;;;6.10;;
29466;SDS011;60968;37.490;-122.288;2022-10-16T18:44:42;17.43;;;5.70;;
29466;SDS011;60968;37.490;-122.288;2022-10-16T18:47:43;15.37;;;5.30;;
29466;SDS011;60968;37.490;-122.288;2022-10-16T18:50:44;12.83;;;5.03;;
29466;SDS011;60968;37.490;-122.288;2022-10-16T18:53:46;13.90;;;5.30;;
29466;SDS011;60968;37.490;-122.288;2022-10-16T18:56:52;13.83;;;5.00;;
29466;SDS011;60968;37.490;-122.288;2022-10-16T18:59:53;11.23;;;5.20;;
29466;SDS011;60968;37.490;-122.288;2022-10-16T19:02:54;15.27;;;5.40;;
29466;SDS011;60968;37.490;-122.288;2022-10-16T19:05:58;13.60;;;5.23;;
29466;SDS011;60968;37.490;-122.288;2022-10-16T19:09:00;17.37;;;5.97;;
29466;SDS011;60968;37.490;-122.288;2022-10-16T19:12:00;15.43;;;5.27;;
29466;SDS011;60968;37.490;-122.288;2022-10-16T19:15:02;17.33;;;5.33;;
29466;SDS011;60968;37.490;-122.288;2022-10-16T19:18:03;20.27;;;5.70;;
29466;SDS011;60968;37.490;-122.288;2022-10-16T19:21:04;15.87;;;5.10;;
29466;SDS011;60968;37.490;-122.288;2022-10-16T19:24:07;17.87;;;5.30;;
29466;SDS011;60968;37.490;-122.288;2022-10-16T19:27:11;13.40;;;5.80;;
29466;SDS011;60968;37.490;-122.288;2022-10-16T19:30:13;18.03;;;6.00;;
29466;SDS011;60968;37.490;-122.288;2022-10-16T19:33:15;15.90;;;5.83;;